Schedule Details

Flight Number: ASX104X
Departure: London-Stansted (EGSS) at 10:30Z
Arrival: Warszawa Chopina (EPWA) at 13:00Z

Weather Information
EGSS 120550Z AUTO 27004KT 9999 NCD M02/M04 Q1004
EPWA 120600Z 17013KT CAVOK 07/04 Q0994 NOSIG

Schedule Frequency

Route Map